sensor_id;sensor_type;location;lat;lon;timestamp;temperature;humidity
63202;DHT22;49296;48.188;11.566;2023-02-01T00:00:56;4.08;70.36
63202;DHT22;49296;48.188;11.566;2023-02-01T00:03:23;4.11;70.42
63202;DHT22;49296;48.188;11.566;2023-02-01T00:05:55;4.14;70.30
63202;DHT22;49296;48.188;11.566;2023-02-01T00:08:22;4.11;70.12
63202;DHT22;49296;48.188;11.566;2023-02-01T00:10:56;4.21;69.82
63202;DHT22;49296;48.188;11.566;2023-02-01T00:13:25;4.15;69.99
63202;DHT22;49296;48.188;11.566;2023-02-01T00:15:53;4.21;69.86
63202;DHT22;49296;48.188;11.566;2023-02-01T00:18:20;4.18;69.64
63202;DHT22;49296;48.188;11.566;2023-02-01T00:20:47;4.29;69.55
63202;DHT22;49296;48.188;11.566;2023-02-01T00:23:14;4.21;69.58
63202;DHT22;49296;48.188;11.566;2023-02-01T00:25:40;4.21;69.50
63202;DHT22;49296;48.188;11.566;2023-02-01T00:28:07;4.21;69.47
63202;DHT22;49296;48.188;11.566;2023-02-01T00:30:35;4.28;69.45
63202;DHT22;49296;48.188;11.566;2023-02-01T00:33:02;4.19;69.72
63202;DHT22;49296;48.188;11.566;2023-02-01T00:35:29;4.26;69.81
63202;DHT22;49296;48.188;11.566;2023-02-01T00:37:56;4.16;70.28
63202;DHT22;49296;48.188;11.566;2023-02-01T00:40:24;4.18;70.64
63202;DHT22;49296;48.188;11.566;2023-02-01T00:42:51;4.22;70.70
63202;DHT22;49296;48.188;11.566;2023-02-01T00:45:19;4.15;70.97
63202;DHT22;49296;48.188;11.566;2023-02-01T00:47:47;4.16;71.46
63202;DHT22;49296;48.188;11.566;2023-02-01T00:50:15;3.98;72.71
63202;DHT22;49296;48.188;11.566;2023-02-01T00:52:42;4.04;73.42
63202;DHT22;49296;48.188;11.566;2023-02-01T00:55:08;4.02;73.75
63202;DHT22;49296;48.188;11.566;2023-02-01T00:57:35;3.99;74.20
63202;DHT22;49296;48.188;11.566;2023-02-01T01:00:03;4.05;73.56
63202;DHT22;49296;48.188;11.566;2023-02-01T01:02:29;4.07;73.41
63202;DHT22;49296;48.188;11.566;2023-02-01T01:04:58;3.97;73.30
63202;DHT22;49296;48.188;11.566;2023-02-01T01:07:24;3.87;74.00
63202;DHT22;49296;48.188;11.566;2023-02-01T01:09:51;3.91;73.99
63202;DHT22;49296;48.188;11.566;2023-02-01T01:12:18;3.95;73.83
63202;DHT22;49296;48.188;11.566;2023-02-01T01:14:45;3.83;74.09
63202;DHT22;49296;48.188;11.566;2023-02-01T01:17:11;3.90;74.02
63202;DHT22;49296;48.188;11.566;2023-02-01T01:19:38;3.81;74.09
63202;DHT22;49296;48.188;11.566;2023-02-01T01:22:06;3.77;74.55
63202;DHT22;49296;48.188;11.566;2023-02-01T01:24:33;3.79;74.50
63202;DHT22;49296;48.188;11.566;2023-02-01T01:27:00;3.84;74.45
63202;DHT22;49296;48.188;11.566;2023-02-01T01:29:27;3.86;74.39
63202;DHT22;49296;48.188;11.566;2023-02-01T01:31:54;3.84;74.42
63202;DHT22;49296;48.188;11.566;2023-02-01T01:34:20;3.86;74.33
63202;DHT22;49296;48.188;11.566;2023-02-01T01:36:47;3.97;74.00
63202;DHT22;49296;48.188;11.566;2023-02-01T01:39:15;3.87;74.45
63202;DHT22;49296;48.188;11.566;2023-02-01T01:41:42;3.87;74.49
63202;DHT22;49296;48.188;11.566;2023-02-01T01:47:09;3.86;75.16
63202;DHT22;49296;48.188;11.566;2023-02-01T01:49:36;3.74;75.54
63202;DHT22;49296;48.188;11.566;2023-02-01T01:52:04;3.77;75.94
63202;DHT22;49296;48.188;11.566;2023-02-01T01:54:35;3.77;75.97
63202;DHT22;49296;48.188;11.566;2023-02-01T01:57:07;3.81;75.85
63202;DHT22;49296;48.188;11.566;2023-02-01T01:59:36;3.74;76.17
63202;DHT22;49296;48.188;11.566;2023-02-01T02:02:03;3.69;76.44
63202;DHT22;49296;48.188;11.566;2023-02-01T02:04:31;3.67;76.49
63202;DHT22;49296;48.188;11.566;2023-02-01T02:07:01;3.62;76.97
63202;DHT22;49296;48.188;11.566;2023-02-01T02:09:29;3.63;76.82
63202;DHT22;49296;48.188;11.566;2023-02-01T02:11:58;3.55;77.06
63202;DHT22;49296;48.188;11.566;2023-02-01T02:14:26;3.63;76.91
63202;DHT22;49296;48.188;11.566;2023-02-01T02:17:03;3.64;76.98
63202;DHT22;49296;48.188;11.566;2023-02-01T02:20:02;3.59;77.26
63202;DHT22;49296;48.188;11.566;2023-02-01T02:23:12;3.52;77.29
63202;DHT22;49296;48.188;11.566;2023-02-01T02:32:10;3.49;77.76
63202;DHT22;49296;48.188;11.566;2023-02-01T02:34:44;3.58;77.60
63202;DHT22;49296;48.188;11.566;2023-02-01T02:37:21;3.55;77.44
63202;DHT22;49296;48.188;11.566;2023-02-01T02:39:55;3.53;77.58
63202;DHT22;49296;48.188;11.566;2023-02-01T02:42:29;3.62;77.47
63202;DHT22;49296;48.188;11.566;2023-02-01T02:45:21;3.58;77.67
63202;DHT22;49296;48.188;11.566;2023-02-01T02:48:12;3.62;77.42
63202;DHT22;49296;48.188;11.566;2023-02-01T02:50:45;3.59;77.35
63202;DHT22;49296;48.188;11.566;2023-02-01T02:53:35;3.53;77.65
63202;DHT22;49296;48.188;11.566;2023-02-01T02:56:27;3.51;77.74
63202;DHT22;49296;48.188;11.566;2023-02-01T02:59:14;3.62;77.43
63202;DHT22;49296;48.188;11.566;2023-02-01T03:01:59;3.62;77.28
63202;DHT22;49296;48.188;11.566;2023-02-01T03:04:43;3.64;77.18
63202;DHT22;49296;48.188;11.566;2023-02-01T03:07:14;3.53;77.40
63202;DHT22;49296;48.188;11.566;2023-02-01T03:09:45;3.58;77.31
63202;DHT22;49296;48.188;11.566;2023-02-01T03:12:15;3.56;77.39
63202;DHT22;49296;48.188;11.566;2023-02-01T03:15:03;3.63;77.22
63202;DHT22;49296;48.188;11.566;2023-02-01T03:17:34;3.63;76.97
63202;DHT22;49296;48.188;11.566;2023-02-01T03:20:03;3.67;76.87
63202;DHT22;49296;48.188;11.566;2023-02-01T03:22:33;3.66;76.75
63202;DHT22;49296;48.188;11.566;2023-02-01T03:25:06;3.67;76.67
63202;DHT22;49296;48.188;11.566;2023-02-01T03:27:36;3.77;76.37
63202;DHT22;49296;48.188;11.566;2023-02-01T03:30:09;3.76;76.37
63202;DHT22;49296;48.188;11.566;2023-02-01T03:32:38;3.81;75.96
63202;DHT22;49296;48.188;11.566;2023-02-01T03:35:26;3.93;75.59
63202;DHT22;49296;48.188;11.566;2023-02-01T03:38:01;3.88;75.50
63202;DHT22;49296;48.188;11.566;2023-02-01T03:40:33;3.83;75.45
63202;DHT22;49296;48.188;11.566;2023-02-01T03:43:04;3.80;75.68
63202;DHT22;49296;48.188;11.566;2023-02-01T03:45:36;3.87;75.49
63202;DHT22;49296;48.188;11.566;2023-02-01T03:48:06;3.93;75.31
63202;DHT22;49296;48.188;11.566;2023-02-01T03:50:37;3.87;75.18
63202;DHT22;49296;48.188;11.566;2023-02-01T03:53:07;3.79;75.45
63202;DHT22;49296;48.188;11.566;2023-02-01T03:55:34;3.83;75.34
63202;DHT22;49296;48.188;11.566;2023-02-01T03:58:06;3.80;75.24
63202;DHT22;49296;48.188;11.566;2023-02-01T04:00:33;3.80;75.37
63202;DHT22;49296;48.188;11.566;2023-02-01T04:03:02;3.74;75.24
63202;DHT22;49296;48.188;11.566;2023-02-01T04:05:29;3.83;75.14
63202;DHT22;49296;48.188;11.566;2023-02-01T04:07:56;3.79;75.39
63202;DHT22;49296;48.188;11.566;2023-02-01T04:10:24;3.76;75.49
63202;DHT22;49296;48.188;11.566;2023-02-01T04:12:51;3.74;75.32
63202;DHT22;49296;48.188;11.566;2023-02-01T04:15:18;3.79;75.19
63202;DHT22;49296;48.188;11.566;2023-02-01T04:17:45;3.80;75.13
63202;DHT22;49296;48.188;11.566;2023-02-01T04:20:12;3.72;75.33
63202;DHT22;49296;48.188;11.566;2023-02-01T04:22:38;3.77;75.15
63202;DHT22;49296;48.188;11.566;2023-02-01T04:25:06;3.83;75.16
63202;DHT22;49296;48.188;11.566;2023-02-01T04:27:35;3.80;75.14
63202;DHT22;49296;48.188;11.566;2023-02-01T04:30:02;3.67;75.27
63202;DHT22;49296;48.188;11.566;2023-02-01T04:32:29;3.76;75.07
63202;DHT22;49296;48.188;11.566;2023-02-01T04:34:56;3.79;74.93
63202;DHT22;49296;48.188;11.566;2023-02-01T04:37:22;3.81;74.64
63202;DHT22;49296;48.188;11.566;2023-02-01T04:39:49;3.84;74.44
63202;DHT22;49296;48.188;11.566;2023-02-01T04:42:16;3.80;74.71
63202;DHT22;49296;48.188;11.566;2023-02-01T04:44:44;3.74;74.79
63202;DHT22;49296;48.188;11.566;2023-02-01T04:47:11;3.76;74.84
63202;DHT22;49296;48.188;11.566;2023-02-01T04:49:37;3.70;74.79
63202;DHT22;49296;48.188;11.566;2023-02-01T04:52:04;3.63;75.05
63202;DHT22;49296;48.188;11.566;2023-02-01T04:54:31;3.74;74.73
63202;DHT22;49296;48.188;11.566;2023-02-01T04:56:58;3.81;74.46
63202;DHT22;49296;48.188;11.566;2023-02-01T04:59:25;3.87;74.18
63202;DHT22;49296;48.188;11.566;2023-02-01T05:01:54;3.88;74.14
63202;DHT22;49296;48.188;11.566;2023-02-01T05:04:21;3.90;73.95
63202;DHT22;49296;48.188;11.566;2023-02-01T05:06:48;3.90;73.96
63202;DHT22;49296;48.188;11.566;2023-02-01T05:09:15;3.84;73.87
63202;DHT22;49296;48.188;11.566;2023-02-01T05:11:41;3.86;74.04
63202;DHT22;49296;48.188;11.566;2023-02-01T05:14:25;3.81;74.09
63202;DHT22;49296;48.188;11.566;2023-02-01T05:16:52;3.77;74.22
63202;DHT22;49296;48.188;11.566;2023-02-01T05:19:20;3.84;73.85
63202;DHT22;49296;48.188;11.566;2023-02-01T05:21:47;3.79;74.21
63202;DHT22;49296;48.188;11.566;2023-02-01T05:24:13;3.73;74.53
63202;DHT22;49296;48.188;11.566;2023-02-01T05:26:45;3.67;74.58
63202;DHT22;49296;48.188;11.566;2023-02-01T05:29:12;3.69;74.54
63202;DHT22;49296;48.188;11.566;2023-02-01T05:31:39;3.80;74.11
63202;DHT22;49296;48.188;11.566;2023-02-01T05:34:07;3.86;73.85
63202;DHT22;49296;48.188;11.566;2023-02-01T05:36:35;3.74;74.06
63202;DHT22;49296;48.188;11.566;2023-02-01T05:39:02;3.83;73.91
63202;DHT22;49296;48.188;11.566;2023-02-01T05:41:29;3.80;73.91
63202;DHT22;49296;48.188;11.566;2023-02-01T05:43:55;3.84;73.69
63202;DHT22;49296;48.188;11.566;2023-02-01T05:46:22;3.86;73.60
63202;DHT22;49296;48.188;11.566;2023-02-01T05:48:49;3.86;73.45
63202;DHT22;49296;48.188;11.566;2023-02-01T05:51:16;3.84;73.71
63202;DHT22;49296;48.188;11.566;2023-02-01T05:53:44;3.84;73.53
63202;DHT22;49296;48.188;11.566;2023-02-01T05:56:13;3.83;73.85
63202;DHT22;49296;48.188;11.566;2023-02-01T05:58:39;3.81;73.69
63202;DHT22;49296;48.188;11.566;2023-02-01T06:01:06;3.79;73.88
63202;DHT22;49296;48.188;11.566;2023-02-01T06:03:32;3.83;73.76
63202;DHT22;49296;48.188;11.566;2023-02-01T06:05:59;3.83;73.76
63202;DHT22;49296;48.188;11.566;2023-02-01T06:08:26;3.87;73.63
63202;DHT22;49296;48.188;11.566;2023-02-01T06:10:58;3.94;73.66
63202;DHT22;49296;48.188;11.566;2023-02-01T06:13:25;3.94;73.41
63202;DHT22;49296;48.188;11.566;2023-02-01T06:15:52;3.94;73.30
63202;DHT22;49296;48.188;11.566;2023-02-01T06:18:19;3.93;73.35
63202;DHT22;49296;48.188;11.566;2023-02-01T06:20:52;3.98;73.61
63202;DHT22;49296;48.188;11.566;2023-02-01T06:23:18;3.93;73.49
63202;DHT22;49296;48.188;11.566;2023-02-01T06:25:49;3.91;73.41
63202;DHT22;49296;48.188;11.566;2023-02-01T06:28:17;3.94;73.52
63202;DHT22;49296;48.188;11.566;2023-02-01T06:30:44;4.02;73.62
63202;DHT22;49296;48.188;11.566;2023-02-01T06:33:11;3.95;73.28
63202;DHT22;49296;48.188;11.566;2023-02-01T06:35:38;3.99;73.19
63202;DHT22;49296;48.188;11.566;2023-02-01T06:38:04;3.91;73.38
63202;DHT22;49296;48.188;11.566;2023-02-01T06:40:31;3.93;73.29
63202;DHT22;49296;48.188;11.566;2023-02-01T06:42:58;3.95;73.09
63202;DHT22;49296;48.188;11.566;2023-02-01T06:45:26;3.93;73.25
63202;DHT22;49296;48.188;11.566;2023-02-01T06:47:55;4.02;72.79
63202;DHT22;49296;48.188;11.566;2023-02-01T06:50:25;4.02;72.84
63202;DHT22;49296;48.188;11.566;2023-02-01T06:52:52;4.07;72.75
63202;DHT22;49296;48.188;11.566;2023-02-01T06:55:19;4.07;72.61
63202;DHT22;49296;48.188;11.566;2023-02-01T06:57:45;4.09;72.49
63202;DHT22;49296;48.188;11.566;2023-02-01T07:02:41;4.12;72.43
63202;DHT22;49296;48.188;11.566;2023-02-01T07:05:08;4.12;72.56
63202;DHT22;49296;48.188;11.566;2023-02-01T07:07:35;4.14;72.51
63202;DHT22;49296;48.188;11.566;2023-02-01T07:10:02;4.11;72.48
63202;DHT22;49296;48.188;11.566;2023-02-01T07:12:29;4.15;72.33
63202;DHT22;49296;48.188;11.566;2023-02-01T07:14:55;4.16;72.36
63202;DHT22;49296;48.188;11.566;2023-02-01T07:17:22;4.18;72.29
63202;DHT22;49296;48.188;11.566;2023-02-01T07:19:50;4.19;72.10
63202;DHT22;49296;48.188;11.566;2023-02-01T07:22:17;4.24;71.99
63202;DHT22;49296;48.188;11.566;2023-02-01T07:24:43;4.19;71.97
63202;DHT22;49296;48.188;11.566;2023-02-01T07:27:10;4.25;72.01
63202;DHT22;49296;48.188;11.566;2023-02-01T07:29:37;4.24;71.64
63202;DHT22;49296;48.188;11.566;2023-02-01T07:32:04;4.24;71.84
63202;DHT22;49296;48.188;11.566;2023-02-01T07:34:31;4.22;71.71
63202;DHT22;49296;48.188;11.566;2023-02-01T07:36:59;4.21;71.49
63202;DHT22;49296;48.188;11.566;2023-02-01T07:39:26;4.22;71.52
63202;DHT22;49296;48.188;11.566;2023-02-01T07:41:54;4.28;71.27
63202;DHT22;49296;48.188;11.566;2023-02-01T07:44:22;4.28;71.31
63202;DHT22;49296;48.188;11.566;2023-02-01T07:46:49;4.31;71.31
63202;DHT22;49296;48.188;11.566;2023-02-01T07:49:16;4.35;71.26
63202;DHT22;49296;48.188;11.566;2023-02-01T07:51:43;4.32;71.44
63202;DHT22;49296;48.188;11.566;2023-02-01T07:54:12;4.33;71.49
63202;DHT22;49296;48.188;11.566;2023-02-01T07:56:39;4.32;71.42
63202;DHT22;49296;48.188;11.566;2023-02-01T07:59:06;4.25;71.54
63202;DHT22;49296;48.188;11.566;2023-02-01T08:01:33;4.26;71.41
63202;DHT22;49296;48.188;11.566;2023-02-01T08:04:01;4.29;71.26
63202;DHT22;49296;48.188;11.566;2023-02-01T08:06:30;4.32;71.24
63202;DHT22;49296;48.188;11.566;2023-02-01T08:08:57;4.43;70.69
63202;DHT22;49296;48.188;11.566;2023-02-01T08:11:27;4.43;70.79
63202;DHT22;49296;48.188;11.566;2023-02-01T08:13:59;4.52;69.99
63202;DHT22;49296;48.188;11.566;2023-02-01T08:16:25;4.53;69.83
63202;DHT22;49296;48.188;11.566;2023-02-01T08:18:52;4.48;70.12
63202;DHT22;49296;48.188;11.566;2023-02-01T08:21:21;4.49;70.10
63202;DHT22;49296;48.188;11.566;2023-02-01T08:23:49;4.59;69.40
63202;DHT22;49296;48.188;11.566;2023-02-01T08:26:18;4.57;69.49
63202;DHT22;49296;48.188;11.566;2023-02-01T08:28:48;4.61;69.06
63202;DHT22;49296;48.188;11.566;2023-02-01T08:31:18;4.73;68.60
63202;DHT22;49296;48.188;11.566;2023-02-01T08:33:49;4.70;68.71
63202;DHT22;49296;48.188;11.566;2023-02-01T08:36:17;4.71;68.41
63202;DHT22;49296;48.188;11.566;2023-02-01T08:38:44;4.69;68.72
63202;DHT22;49296;48.188;11.566;2023-02-01T08:41:13;4.69;68.76
63202;DHT22;49296;48.188;11.566;2023-02-01T08:43:40;4.76;68.27
63202;DHT22;49296;48.188;11.566;2023-02-01T08:46:09;4.76;68.15
63202;DHT22;49296;48.188;11.566;2023-02-01T08:48:37;4.83;67.97
63202;DHT22;49296;48.188;11.566;2023-02-01T08:51:05;4.83;67.91
63202;DHT22;49296;48.188;11.566;2023-02-01T08:53:32;4.84;67.78
63202;DHT22;49296;48.188;11.566;2023-02-01T08:55:59;4.84;68.02
63202;DHT22;49296;48.188;11.566;2023-02-01T08:58:27;4.88;67.74
63202;DHT22;49296;48.188;11.566;2023-02-01T09:00:54;4.89;67.65
63202;DHT22;49296;48.188;11.566;2023-02-01T09:03:22;4.84;67.55
63202;DHT22;49296;48.188;11.566;2023-02-01T09:05:49;4.91;67.34
63202;DHT22;49296;48.188;11.566;2023-02-01T09:08:16;4.98;67.17
63202;DHT22;49296;48.188;11.566;2023-02-01T09:10:44;4.95;67.22
63202;DHT22;49296;48.188;11.566;2023-02-01T09:13:11;4.98;67.02
63202;DHT22;49296;48.188;11.566;2023-02-01T09:15:37;4.94;66.89
63202;DHT22;49296;48.188;11.566;2023-02-01T09:18:04;4.98;66.65
63202;DHT22;49296;48.188;11.566;2023-02-01T09:20:32;5.09;66.48
63202;DHT22;49296;48.188;11.566;2023-02-01T09:22:59;5.08;66.42
63202;DHT22;49296;48.188;11.566;2023-02-01T09:25:26;5.11;66.37
63202;DHT22;49296;48.188;11.566;2023-02-01T09:27:53;5.21;66.17
63202;DHT22;49296;48.188;11.566;2023-02-01T09:30:20;5.15;66.45
63202;DHT22;49296;48.188;11.566;2023-02-01T09:32:47;5.26;66.17
63202;DHT22;49296;48.188;11.566;2023-02-01T09:35:14;5.21;66.60
63202;DHT22;49296;48.188;11.566;2023-02-01T09:37:42;5.16;66.67
63202;DHT22;49296;48.188;11.566;2023-02-01T09:40:12;5.22;66.40
63202;DHT22;49296;48.188;11.566;2023-02-01T09:42:50;5.26;66.41
63202;DHT22;49296;48.188;11.566;2023-02-01T09:45:23;5.29;66.56
63202;DHT22;49296;48.188;11.566;2023-02-01T09:47:56;5.26;66.66
63202;DHT22;49296;48.188;11.566;2023-02-01T09:50:32;5.30;66.35
63202;DHT22;49296;48.188;11.566;2023-02-01T09:53:04;5.22;66.62
63202;DHT22;49296;48.188;11.566;2023-02-01T09:55:37;5.29;66.77
63202;DHT22;49296;48.188;11.566;2023-02-01T09:58:07;5.36;66.73
63202;DHT22;49296;48.188;11.566;2023-02-01T10:00:37;5.35;66.70
63202;DHT22;49296;48.188;11.566;2023-02-01T10:03:04;5.39;66.60
63202;DHT22;49296;48.188;11.566;2023-02-01T10:05:47;5.30;66.94
63202;DHT22;49296;48.188;11.566;2023-02-01T10:08:25;5.16;67.16
63202;DHT22;49296;48.188;11.566;2023-02-01T10:10:56;5.25;67.10
63202;DHT22;49296;48.188;11.566;2023-02-01T10:13:43;5.19;66.84
63202;DHT22;49296;48.188;11.566;2023-02-01T10:16:18;5.16;67.12
63202;DHT22;49296;48.188;11.566;2023-02-01T10:19:10;5.22;67.32
63202;DHT22;49296;48.188;11.566;2023-02-01T10:21:48;5.23;67.27
63202;DHT22;49296;48.188;11.566;2023-02-01T10:27:14;5.15;67.36
63202;DHT22;49296;48.188;11.566;2023-02-01T10:29:45;5.21;67.39
63202;DHT22;49296;48.188;11.566;2023-02-01T10:32:14;5.22;67.14
63202;DHT22;49296;48.188;11.566;2023-02-01T10:34:42;5.15;67.55
63202;DHT22;49296;48.188;11.566;2023-02-01T10:37:18;5.16;67.58
63202;DHT22;49296;48.188;11.566;2023-02-01T10:39:48;5.15;67.68
63202;DHT22;49296;48.188;11.566;2023-02-01T10:42:16;5.22;67.53
63202;DHT22;49296;48.188;11.566;2023-02-01T10:44:45;5.18;67.56
63202;DHT22;49296;48.188;11.566;2023-02-01T10:47:14;5.22;67.32
63202;DHT22;49296;48.188;11.566;2023-02-01T10:49:47;5.14;67.60
63202;DHT22;49296;48.188;11.566;2023-02-01T10:52:31;5.21;67.43
63202;DHT22;49296;48.188;11.566;2023-02-01T10:55:30;5.22;67.45
63202;DHT22;49296;48.188;11.566;2023-02-01T10:57:59;5.22;67.71
63202;DHT22;49296;48.188;11.566;2023-02-01T11:00:27;5.22;67.32
63202;DHT22;49296;48.188;11.566;2023-02-01T11:02:54;5.18;67.53
63202;DHT22;49296;48.188;11.566;2023-02-01T11:05:21;5.16;67.64
63202;DHT22;49296;48.188;11.566;2023-02-01T11:07:50;5.29;67.27
63202;DHT22;49296;48.188;11.566;2023-02-01T11:10:37;5.22;67.36
63202;DHT22;49296;48.188;11.566;2023-02-01T11:13:13;5.18;67.29
63202;DHT22;49296;48.188;11.566;2023-02-01T11:15:43;5.07;67.63
63202;DHT22;49296;48.188;11.566;2023-02-01T11:18:16;5.04;67.93
63202;DHT22;49296;48.188;11.566;2023-02-01T11:20:45;5.05;68.00
63202;DHT22;49296;48.188;11.566;2023-02-01T11:23:16;5.11;68.09
63202;DHT22;49296;48.188;11.566;2023-02-01T11:25:51;5.11;68.20
63202;DHT22;49296;48.188;11.566;2023-02-01T11:28:21;5.11;68.13
63202;DHT22;49296;48.188;11.566;2023-02-01T11:30:48;5.02;68.19
63202;DHT22;49296;48.188;11.566;2023-02-01T11:33:19;5.02;68.36
63202;DHT22;49296;48.188;11.566;2023-02-01T11:35:49;5.11;68.31
63202;DHT22;49296;48.188;11.566;2023-02-01T11:38:21;5.08;68.25
63202;DHT22;49296;48.188;11.566;2023-02-01T11:40:50;5.05;68.12
63202;DHT22;49296;48.188;11.566;2023-02-01T11:43:23;5.08;68.09
63202;DHT22;49296;48.188;11.566;2023-02-01T11:45:54;5.11;67.69
63202;DHT22;49296;48.188;11.566;2023-02-01T11:48:23;5.04;67.80
63202;DHT22;49296;48.188;11.566;2023-02-01T11:50:59;4.98;67.97
63202;DHT22;49296;48.188;11.566;2023-02-01T11:53:39;4.99;67.97
63202;DHT22;49296;48.188;11.566;2023-02-01T11:56:19;5.02;68.17
63202;DHT22;49296;48.188;11.566;2023-02-01T11:59:08;5.02;68.32
63202;DHT22;49296;48.188;11.566;2023-02-01T12:01:46;5.12;69.79
63202;DHT22;49296;48.188;11.566;2023-02-01T12:04:35;5.19;68.54
63202;DHT22;49296;48.188;11.566;2023-02-01T12:07:12;5.09;68.22
63202;DHT22;49296;48.188;11.566;2023-02-01T12:09:49;4.97;68.64
63202;DHT22;49296;48.188;11.566;2023-02-01T12:12:25;4.94;68.53
63202;DHT22;49296;48.188;11.566;2023-02-01T12:15:17;4.89;69.00
63202;DHT22;49296;48.188;11.566;2023-02-01T12:17:55;4.84;68.96
63202;DHT22;49296;48.188;11.566;2023-02-01T12:20:39;4.98;68.92
63202;DHT22;49296;48.188;11.566;2023-02-01T12:23:21;5.01;68.54
63202;DHT22;49296;48.188;11.566;2023-02-01T12:26:03;4.98;68.75
63202;DHT22;49296;48.188;11.566;2023-02-01T12:28:48;4.94;68.68
63202;DHT22;49296;48.188;11.566;2023-02-01T12:31:38;4.80;68.97
63202;DHT22;49296;48.188;11.566;2023-02-01T12:34:26;4.87;68.62
63202;DHT22;49296;48.188;11.566;2023-02-01T12:37:03;4.80;68.85
63202;DHT22;49296;48.188;11.566;2023-02-01T12:39:37;4.87;68.50
63202;DHT22;49296;48.188;11.566;2023-02-01T12:42:11;4.83;68.64
63202;DHT22;49296;48.188;11.566;2023-02-01T12:44:48;4.77;68.71
63202;DHT22;49296;48.188;11.566;2023-02-01T12:47:21;4.92;68.29
63202;DHT22;49296;48.188;11.566;2023-02-01T12:49:54;4.88;68.19
63202;DHT22;49296;48.188;11.566;2023-02-01T12:52:27;4.81;68.36
63202;DHT22;49296;48.188;11.566;2023-02-01T12:55:02;4.85;68.00
63202;DHT22;49296;48.188;11.566;2023-02-01T12:57:32;4.81;67.75
63202;DHT22;49296;48.188;11.566;2023-02-01T13:00:16;4.87;67.87
63202;DHT22;49296;48.188;11.566;2023-02-01T13:02:52;4.88;67.23
63202;DHT22;49296;48.188;11.566;2023-02-01T13:05:22;4.87;67.03
63202;DHT22;49296;48.188;11.566;2023-02-01T13:07:52;4.97;66.91
63202;DHT22;49296;48.188;11.566;2023-02-01T13:10:24;4.97;66.91
63202;DHT22;49296;48.188;11.566;2023-02-01T13:13:00;5.07;66.58
63202;DHT22;49296;48.188;11.566;2023-02-01T13:15:33;5.05;66.33
63202;DHT22;49296;48.188;11.566;2023-02-01T13:18:05;5.02;66.25
63202;DHT22;49296;48.188;11.566;2023-02-01T13:20:39;5.01;66.88
63202;DHT22;49296;48.188;11.566;2023-02-01T13:23:14;4.99;66.97
63202;DHT22;49296;48.188;11.566;2023-02-01T13:25:48;5.01;66.92
63202;DHT22;49296;48.188;11.566;2023-02-01T13:28:19;5.01;67.47
63202;DHT22;49296;48.188;11.566;2023-02-01T13:31:02;5.05;67.59
63202;DHT22;49296;48.188;11.566;2023-02-01T13:36:51;4.95;68.13
63202;DHT22;49296;48.188;11.566;2023-02-01T13:40:04;4.92;68.36
63202;DHT22;49296;48.188;11.566;2023-02-01T13:42:45;4.94;68.77
63202;DHT22;49296;48.188;11.566;2023-02-01T13:45:15;4.95;68.94
63202;DHT22;49296;48.188;11.566;2023-02-01T13:47:46;4.81;69.54
63202;DHT22;49296;48.188;11.566;2023-02-01T13:50:22;4.80;69.73
63202;DHT22;49296;48.188;11.566;2023-02-01T13:52:53;4.78;69.58
63202;DHT22;49296;48.188;11.566;2023-02-01T13:55:25;4.81;70.06
63202;DHT22;49296;48.188;11.566;2023-02-01T13:58:02;4.74;70.32
63202;DHT22;49296;48.188;11.566;2023-02-01T14:00:31;4.76;70.53
63202;DHT22;49296;48.188;11.566;2023-02-01T14:03:13;4.70;70.69
63202;DHT22;49296;48.188;11.566;2023-02-01T14:06:03;4.70;71.00
63202;DHT22;49296;48.188;11.566;2023-02-01T14:11:49;4.81;70.82
63202;DHT22;49296;48.188;11.566;2023-02-01T14:14:44;4.89;70.64
63202;DHT22;49296;48.188;11.566;2023-02-01T14:17:35;4.76;70.69
63202;DHT22;49296;48.188;11.566;2023-02-01T14:23:25;4.73;70.77
63202;DHT22;49296;48.188;11.566;2023-02-01T14:26:18;4.77;70.82
63202;DHT22;49296;48.188;11.566;2023-02-01T14:29:03;4.66;
63202;DHT22;49296;48.188;11.566;2023-02-01T14:31:46;4.70;70.60
63202;DHT22;49296;48.188;11.566;2023-02-01T14:34:18;4.76;70.20
63202;DHT22;49296;48.188;11.566;2023-02-01T14:36:50;4.77;69.83
63202;DHT22;49296;48.188;11.566;2023-02-01T14:39:39;4.66;69.52
63202;DHT22;49296;48.188;11.566;2023-02-01T14:42:21;4.76;69.58
63202;DHT22;49296;48.188;11.566;2023-02-01T14:44:49;4.76;69.48
63202;DHT22;49296;48.188;11.566;2023-02-01T14:47:31;4.78;68.85
63202;DHT22;49296;48.188;11.566;2023-02-01T14:50:30;4.70;68.42
63202;DHT22;49296;48.188;11.566;2023-02-01T14:53:11;4.71;67.89
63202;DHT22;49296;48.188;11.566;2023-02-01T14:55:42;4.73;67.63
63202;DHT22;49296;48.188;11.566;2023-02-01T14:58:16;4.76;67.52
63202;DHT22;49296;48.188;11.566;2023-02-01T15:00:51;4.71;67.50
63202;DHT22;49296;48.188;11.566;2023-02-01T15:03:38;4.71;67.43
63202;DHT22;49296;48.188;11.566;2023-02-01T15:06:25;4.81;67.39
63202;DHT22;49296;48.188;11.566;2023-02-01T15:08:55;4.89;67.37
63202;DHT22;49296;48.188;11.566;2023-02-01T15:11:25;4.89;67.65
63202;DHT22;49296;48.188;11.566;2023-02-01T15:13:53;4.91;67.91
63202;DHT22;49296;48.188;11.566;2023-02-01T15:16:23;4.91;68.13
63202;DHT22;49296;48.188;11.566;2023-02-01T15:18:50;5.02;68.49
63202;DHT22;49296;48.188;11.566;2023-02-01T15:21:42;4.92;67.66
63202;DHT22;49296;48.188;11.566;2023-02-01T15:24:11;4.97;67.81
63202;DHT22;49296;48.188;11.566;2023-02-01T15:26:39;4.92;67.51
63202;DHT22;49296;48.188;11.566;2023-02-01T15:29:11;5.01;67.27
63202;DHT22;49296;48.188;11.566;2023-02-01T15:31:39;4.97;67.18
63202;DHT22;49296;48.188;11.566;2023-02-01T15:34:10;4.97;67.45
63202;DHT22;49296;48.188;11.566;2023-02-01T15:36:38;5.04;67.22
63202;DHT22;49296;48.188;11.566;2023-02-01T15:39:13;5.02;67.43
63202;DHT22;49296;48.188;11.566;2023-02-01T15:41:46;4.95;68.17
63202;DHT22;49296;48.188;11.566;2023-02-01T15:44:16;5.04;67.89
63202;DHT22;49296;48.188;11.566;2023-02-01T15:46:46;4.87;68.09
63202;DHT22;49296;48.188;11.566;2023-02-01T15:49:24;4.88;68.22
63202;DHT22;49296;48.188;11.566;2023-02-01T15:51:52;4.84;68.33
63202;DHT22;49296;48.188;11.566;2023-02-01T15:54:23;4.85;67.96
63202;DHT22;49296;48.188;11.566;2023-02-01T15:56:53;4.78;67.96
63202;DHT22;49296;48.188;11.566;2023-02-01T15:59:22;4.77;67.91
63202;DHT22;49296;48.188;11.566;2023-02-01T16:01:49;4.71;68.14
63202;DHT22;49296;48.188;11.566;2023-02-01T16:04:18;4.71;68.10
63202;DHT22;49296;48.188;11.566;2023-02-01T16:06:47;4.64;68.51
63202;DHT22;49296;48.188;11.566;2023-02-01T16:09:15;4.66;68.62
63202;DHT22;49296;48.188;11.566;2023-02-01T16:11:56;4.64;68.78
63202;DHT22;49296;48.188;11.566;2023-02-01T16:14:23;4.49;68.99
63202;DHT22;49296;48.188;11.566;2023-02-01T16:16:51;4.63;68.75
63202;DHT22;49296;48.188;11.566;2023-02-01T16:19:18;4.66;68.47
63202;DHT22;49296;48.188;11.566;2023-02-01T16:21:46;4.63;68.32